Time,TemperatureF,DewpointF,PressureIn,WindDirection,WindDirectionDegrees,WindSpeedMPH,WindSpeedGustMPH,Humidity,HourlyPrecipIn,Conditions,Clouds,dailyrainin,SoftwareType,DateUTC
2013-06-25 00:01:00,54.8,51.9,29.65,NE,53,5.0,5.0,90,0.00,,,0.00,Wunderground v.1.15,2013-06-25 07:01:00,
2013-06-25 00:02:00,54.8,51.9,29.65,NE,51,5.0,5.0,90,0.00,,,0.00,Wunderground v.1.15,2013-06-25 07:02:00,
2013-06-25 00:04:00,54.8,51.9,29.65,NE,51,4.0,5.0,90,0.00,,,0.00,Wunderground v.1.15,2013-06-25 07:04:00,
2013-06-25 00:07:00,54.8,51.9,29.65,NE,51,4.0,5.0,90,0.00,,,0.00,Wunderground v.1.15,2013-06-25 07:07:00,
2013-06-25 00:08:00,54.8,51.9,29.65,NE,51,5.0,5.0,90,0.00,,,0.00,Wunderground v.1.15,2013-06-25 07:08:00,
2013-06-25 00:10:00,54.8,51.9,29.65,NE,51,1.0,5.0,90,0.00,,,0.00,Wunderground v.1.15,2013-06-25 07:10:00,
2013-06-25 00:11:00,54.8,51.9,29.65,NE,51,2.0,5.0,90,0.00,,,0.00,Wunderground v.1.15,2013-06-25 07:11:00,
2013-06-25 00:13:00,54.8,51.9,29.66,NE,51,2.0,5.0,90,0.00,,,0.00,Wunderground v.1.15,2013-06-25 07:13:00,
2013-06-25 00:15:00,54.7,51.8,29.66,NE,51,2.0,5.0,90,0.00,,,0.00,Wunderground v.1.15,2013-06-25 07:15:00,
2013-06-25 00:19:00,54.7,51.8,29.66,NE,51,1.0,5.0,90,0.00,,,0.00,Wunderground v.1.15,2013-06-25 07:19:00,
2013-06-25 00:20:00,54.7,51.8,29.66,NE,51,0.0,5.0,90,0.00,,,0.00,Wunderground v.1.15,2013-06-25 07:20:00,
2013-06-25 00:21:00,54.7,51.8,29.66,NE,51,2.0,2.0,90,0.00,,,0.00,Wunderground v.1.15,2013-06-25 07:21:00,
2013-06-25 00:24:00,54.5,51.6,29.66,NE,51,1.0,2.0,90,0.00,,,0.00,Wunderground v.1.15,2013-06-25 07:24:00,
2013-06-25 00:25:00,54.5,51.6,29.66,NE,51,0.0,2.0,90,0.00,,,0.00,Wunderground v.1.15,2013-06-25 07:25:00,
2013-06-25 00:27:00,54.4,51.2,29.66,NE,51,0.0,2.0,89,0.00,,,0.00,Wunderground v.1.15,2013-06-25 07:27:00,
2013-06-25 00:30:00,54.2,51.3,29.66,NE,51,0.0,2.0,90,0.00,,,0.00,Wunderground v.1.15,2013-06-25 07:30:00,
2013-06-25 00:31:00,54.1,51.2,29.66,NE,51,0.0,1.0,90,0.00,,,0.00,Wunderground v.1.15,2013-06-25 07:31:00,
2013-06-25 00:32:00,54.0,51.1,29.66,NE,51,0.0,1.0,90,0.00,,,0.00,Wunderground v.1.15,2013-06-25 07:32:00,
2013-06-25 00:34:00,53.9,51.0,29.66,NE,51,2.0,2.0,90,0.00,,,0.00,Wunderground v.1.15,2013-06-25 07:34:00,
2013-06-25 00:38:00,53.6,50.7,29.66,NE,51,0.0,2.0,90,0.00,,,0.00,Wunderground v.1.15,2013-06-25 07:38:00,
2013-06-25 00:39:00,53.6,50.7,29.66,NE,51,0.0,2.0,90,0.00,,,0.00,Wunderground v.1.15,2013-06-25 07:39:00,
2013-06-25 00:40:00,53.5,50.6,29.66,NE,51,0.0,2.0,90,0.00,,,0.00,Wunderground v.1.15,2013-06-25 07:40:00,
2013-06-25 00:41:00,53.4,50.5,29.66,NE,51,0.0,0.0,90,0.00,,,0.00,Wunderground v.1.15,2013-06-25 07:41:00,
2013-06-25 00:45:00,53.2,50.3,29.66,NE,51,0.0,0.0,90,0.00,,,0.00,Wunderground v.1.15,2013-06-25 07:45:00,
2013-06-25 00:46:00,53.2,50.3,29.66,NE,51,0.0,0.0,90,0.00,,,0.00,Wunderground v.1.15,2013-06-25 07:46:00,
2013-06-25 00:48:00,53.2,50.6,29.66,NE,51,0.0,0.0,91,0.00,,,0.00,Wunderground v.1.15,2013-06-25 07:48:00,
2013-06-25 00:49:00,53.2,50.6,29.66,NE,51,0.0,0.0,91,0.00,,,0.00,Wunderground v.1.15,2013-06-25 07:49:00,
2013-06-25 00:52:00,53.2,50.6,29.66,NE,51,0.0,0.0,91,0.00,,,0.00,Wunderground v.1.15,2013-06-25 07:52:00,
2013-06-25 00:53:00,53.3,50.7,29.66,NE,51,0.0,0.0,91,0.00,,,0.00,Wunderground v.1.15,2013-06-25 07:53:00,
2013-06-25 00:55:00,53.4,51.1,29.66,NE,51,1.0,1.0,92,0.00,,,0.00,Wunderground v.1.15,2013-06-25 07:55:00,
2013-06-25 00:59:00,53.4,51.1,29.66,NE,51,2.0,2.0,92,0.00,,,0.00,Wunderground v.1.15,2013-06-25 07:59:00,
2013-06-25 01:01:00,53.5,51.2,29.66,NE,51,3.0,3.0,92,0.00,,,0.00,Wunderground v.1.15,2013-06-25 08:01:00,
2013-06-25 01:02:00,53.5,51.2,29.66,NE,51,4.0,4.0,92,0.00,,,0.00,Wunderground v.1.15,2013-06-25 08:02:00,
2013-06-25 01:06:00,53.6,51.3,29.66,NE,51,2.0,4.0,92,0.00,,,0.00,Wunderground v.1.15,2013-06-25 08:06:00,
2013-06-25 01:07:00,53.7,51.4,29.66,NE,51,2.0,4.0,92,0.00,,,0.00,Wunderground v.1.15,2013-06-25 08:07:00,
2013-06-25 01:08:00,53.7,51.4,29.66,NE,51,1.0,4.0,92,0.00,,,0.00,Wunderground v.1.15,2013-06-25 08:08:00,
2013-06-25 01:10:00,53.8,51.5,29.66,NE,51,1.0,4.0,92,0.00,,,0.00,Wunderground v.1.15,2013-06-25 08:10:00,
2013-06-25 01:11:00,53.7,51.4,29.67,NE,51,1.0,2.0,92,0.00,,,0.00,Wunderground v.1.15,2013-06-25 08:11:00,
2013-06-25 01:14:00,53.6,51.0,29.67,NE,51,1.0,2.0,91,0.00,,,0.00,Wunderground v.1.15,2013-06-25 08:14:00,
2013-06-25 01:15:00,53.5,50.9,29.67,NE,51,1.0,2.0,91,0.00,,,0.00,Wunderground v.1.15,2013-06-25 08:15:00,
2013-06-25 01:18:00,53.4,50.8,29.67,NE,51,1.0,2.0,91,0.00,,,0.00,Wunderground v.1.15,2013-06-25 08:18:00,
2013-06-25 01:20:00,53.4,50.8,29.67,NE,51,2.0,2.0,91,0.00,,,0.00,Wunderground v.1.15,2013-06-25 08:20:00,
2013-06-25 01:23:00,53.5,51.2,29.67,NE,51,2.0,2.0,92,0.00,,,0.00,Wunderground v.1.15,2013-06-25 08:23:00,
2013-06-25 01:24:00,53.5,51.2,29.67,NE,51,2.0,2.0,92,0.00,,,0.00,Wunderground v.1.15,2013-06-25 08:24:00,
2013-06-25 01:25:00,53.5,51.2,29.67,NE,51,1.0,2.0,92,0.00,,,0.00,Wunderground v.1.15,2013-06-25 08:25:00,
2013-06-25 01:26:00,53.5,51.2,29.67,NE,51,2.0,2.0,92,0.00,,,0.00,Wunderground v.1.15,2013-06-25 08:26:00,
2013-06-25 01:30:00,53.5,50.9,29.67,NE,51,2.0,2.0,91,0.00,,,0.00,Wunderground v.1.15,2013-06-25 08:30:00,
2013-06-25 01:31:00,53.5,50.9,29.67,NE,51,2.0,2.0,91,0.00,,,0.00,Wunderground v.1.15,2013-06-25 08:31:00,
2013-06-25 01:32:00,53.5,50.9,29.67,NE,51,2.0,2.0,91,0.00,,,0.00,Wunderground v.1.15,2013-06-25 08:32:00,
2013-06-25 01:34:00,53.4,50.8,29.67,NE,51,2.0,2.0,91,0.00,,,0.00,Wunderground v.1.15,2013-06-25 08:34:00,
2013-06-25 01:36:00,53.3,50.7,29.67,NE,51,2.0,2.0,91,0.00,,,0.00,Wunderground v.1.15,2013-06-25 08:36:00,
2013-06-25 01:37:00,53.2,50.6,29.67,NE,51,1.0,2.0,91,0.00,,,0.00,Wunderground v.1.15,2013-06-25 08:37:00,
2013-06-25 01:40:00,53.1,50.5,29.67,NE,51,1.0,2.0,91,0.00,,,0.00,Wunderground v.1.15,2013-06-25 08:40:00,
2013-06-25 01:43:00,53.0,50.4,29.67,NE,51,1.0,2.0,91,0.00,,,0.00,Wunderground v.1.15,2013-06-25 08:43:00,
2013-06-25 01:44:00,52.9,50.3,29.67,NE,51,1.0,2.0,91,0.00,,,0.00,Wunderground v.1.15,2013-06-25 08:44:00,
2013-06-25 01:45:00,53.0,50.4,29.67,NE,51,1.0,2.0,91,0.00,,,0.00,Wunderground v.1.15,2013-06-25 08:45:00,
2013-06-25 01:46:00,53.0,50.4,29.67,NE,51,1.0,2.0,91,0.00,,,0.00,Wunderground v.1.15,2013-06-25 08:46:00,
2013-06-25 01:49:00,53.0,50.4,29.67,NE,51,2.0,2.0,91,0.00,,,0.00,Wunderground v.1.15,2013-06-25 08:49:00,
2013-06-25 01:51:00,52.9,50.3,29.67,NE,51,2.0,2.0,91,0.00,,,0.00,Wunderground v.1.15,2013-06-25 08:51:00,
2013-06-25 01:52:00,52.9,50.3,29.67,NE,51,2.0,2.0,91,0.00,,,0.00,Wunderground v.1.15,2013-06-25 08:52:00,
2013-06-25 01:57:00,52.6,50.0,29.67,NE,51,2.0,3.0,91,0.00,,,0.00,Wunderground v.1.15,2013-06-25 08:57:00,
2013-06-25 02:02:00,52.8,50.5,29.67,NE,51,1.0,2.0,92,0.00,,,0.00,Wunderground v.1.15,2013-06-25 09:02:00,
2013-06-25 02:07:00,53.3,51.0,29.67,NE,51,1.0,2.0,92,0.00,,,0.00,Wunderground v.1.15,2013-06-25 09:07:00,
2013-06-25 02:12:00,54.0,51.7,29.67,NE,51,0.0,2.0,92,0.00,,,0.00,Wunderground v.1.15,2013-06-25 09:12:00,
2013-06-25 02:18:00,54.2,51.6,29.67,NE,51,1.0,2.0,91,0.00,,,0.00,Wunderground v.1.15,2013-06-25 09:18:00,
2013-06-25 02:23:00,54.3,51.4,29.67,NE,51,1.0,1.0,90,0.00,,,0.00,Wunderground v.1.15,2013-06-25 09:23:00,
2013-06-25 02:28:00,53.9,50.7,29.67,NE,51,0.0,2.0,89,0.00,,,0.00,Wunderground v.1.15,2013-06-25 09:28:00,
2013-06-25 02:32:00,53.3,50.1,29.67,NE,51,0.0,0.0,89,0.00,,,0.00,Wunderground v.1.15,2013-06-25 09:32:00,
2013-06-25 02:38:00,53.1,50.2,29.68,NE,51,0.0,1.0,90,0.00,,,0.00,Wunderground v.1.15,2013-06-25 09:38:00,
2013-06-25 02:43:00,52.9,50.0,29.68,NE,51,0.0,0.0,90,0.00,,,0.00,Wunderground v.1.15,2013-06-25 09:43:00,
2013-06-25 02:48:00,52.8,50.2,29.68,NE,51,0.0,1.0,91,0.00,,,0.00,Wunderground v.1.15,2013-06-25 09:48:00,
2013-06-25 02:53:00,52.7,49.8,29.68,NE,51,0.0,0.0,90,0.00,,,0.00,Wunderground v.1.15,2013-06-25 09:53:00,
2013-06-25 02:58:00,52.4,49.6,29.68,NE,51,0.0,2.0,90,0.00,,,0.00,Wunderground v.1.15,2013-06-25 09:58:00,
2013-06-25 03:03:00,52.1,49.6,29.68,NE,51,0.0,1.0,91,0.00,,,0.00,Wunderground v.1.15,2013-06-25 10:03:00,
2013-06-25 03:08:00,51.8,49.3,29.68,NE,51,0.0,1.0,91,0.00,,,0.00,Wunderground v.1.15,2013-06-25 10:08:00,
2013-06-25 03:13:00,51.7,49.2,29.68,NE,51,0.0,0.0,91,0.00,,,0.00,Wunderground v.1.15,2013-06-25 10:13:00,
2013-06-25 03:18:00,51.8,49.5,29.68,NE,51,2.0,2.0,92,0.00,,,0.00,Wunderground v.1.15,2013-06-25 10:18:00,
2013-06-25 03:23:00,51.9,49.6,29.68,NE,51,3.0,3.0,92,0.00,,,0.00,Wunderground v.1.15,2013-06-25 10:23:00,
2013-06-25 03:28:00,52.0,50.0,29.68,NE,51,2.0,3.0,93,0.00,,,0.00,Wunderground v.1.15,2013-06-25 10:28:00,
2013-06-25 03:33:00,52.1,50.1,29.68,NE,51,1.0,1.0,93,0.00,,,0.00,Wunderground v.1.15,2013-06-25 10:33:00,
2013-06-25 03:38:00,52.5,50.5,29.69,NE,51,0.0,2.0,93,0.00,,,0.00,Wunderground v.1.15,2013-06-25 10:38:00,
2013-06-25 03:43:00,52.8,50.8,29.69,NE,51,0.0,0.0,93,0.00,,,0.00,Wunderground v.1.15,2013-06-25 10:43:00,
2013-06-25 03:48:00,53.0,51.0,29.69,NE,51,0.0,0.0,93,0.00,,,0.00,Wunderground v.1.15,2013-06-25 10:48:00,
2013-06-25 03:53:00,53.0,51.0,29.69,NE,51,0.0,1.0,93,0.00,,,0.00,Wunderground v.1.15,2013-06-25 10:53:00,
2013-06-25 03:58:00,53.1,51.1,29.69,NE,51,0.0,1.0,93,0.00,,,0.00,Wunderground v.1.15,2013-06-25 10:58:00,
2013-06-25 04:03:00,53.1,51.1,29.69,NE,51,2.0,2.0,93,0.00,,,0.00,Wunderground v.1.15,2013-06-25 11:03:00,
2013-06-25 04:08:00,53.3,51.3,29.69,NE,51,4.0,5.0,93,0.00,,,0.00,Wunderground v.1.15,2013-06-25 11:08:00,
2013-06-25 04:13:00,53.5,51.8,29.69,NE,51,2.0,4.0,94,0.00,,,0.00,Wunderground v.1.15,2013-06-25 11:13:00,
2013-06-25 04:18:00,53.7,51.7,29.69,NE,51,3.0,4.0,93,0.00,,,0.00,Wunderground v.1.15,2013-06-25 11:18:00,
2013-06-25 04:23:00,53.8,51.8,29.69,NE,51,3.0,4.0,93,0.00,,,0.00,Wunderground v.1.15,2013-06-25 11:23:00,
2013-06-25 04:28:00,53.8,51.8,29.69,NE,51,3.0,4.0,93,0.00,,,0.00,Wunderground v.1.15,2013-06-25 11:28:00,
2013-06-25 04:33:00,53.9,51.9,29.69,NE,51,3.0,3.0,93,0.00,,,0.00,Wunderground v.1.15,2013-06-25 11:33:00,
2013-06-25 04:37:00,54.0,52.0,29.69,NE,51,2.0,3.0,93,0.00,,,0.00,Wunderground v.1.15,2013-06-25 11:37:00,
2013-06-25 04:42:00,54.1,51.8,29.69,NE,51,1.0,2.0,92,0.00,,,0.00,Wunderground v.1.15,2013-06-25 11:42:00,
2013-06-25 04:47:00,54.1,51.8,29.69,NE,51,0.0,2.0,92,0.00,,,0.00,Wunderground v.1.15,2013-06-25 11:47:00,
2013-06-25 04:52:00,53.9,51.6,29.69,NE,51,0.0,2.0,92,0.00,,,0.00,Wunderground v.1.15,2013-06-25 11:52:00,
2013-06-25 04:57:00,53.9,51.6,29.69,NE,51,0.0,2.0,92,0.00,,,0.00,Wunderground v.1.15,2013-06-25 11:57:00,
2013-06-25 05:02:00,53.9,51.6,29.69,NE,51,0.0,0.0,92,0.00,,,0.00,Wunderground v.1.15,2013-06-25 12:02:00,
2013-06-25 05:07:00,53.7,51.4,29.69,NE,51,0.0,1.0,92,0.00,,,0.00,Wunderground v.1.15,2013-06-25 12:07:00,
2013-06-25 05:12:00,53.7,51.4,29.69,NE,51,0.0,1.0,92,0.00,,,0.00,Wunderground v.1.15,2013-06-25 12:12:00,
2013-06-25 05:17:00,53.7,51.4,29.70,NE,51,0.0,2.0,92,0.00,,,0.00,Wunderground v.1.15,2013-06-25 12:17:00,
2013-06-25 05:22:00,53.7,51.4,29.70,NE,51,2.0,3.0,92,0.00,,,0.00,Wunderground v.1.15,2013-06-25 12:22:00,
2013-06-25 05:27:00,53.7,51.4,29.69,NE,51,1.0,4.0,92,0.00,,,0.00,Wunderground v.1.15,2013-06-25 12:27:00,
2013-06-25 05:32:00,53.7,51.4,29.69,NE,51,1.0,2.0,92,0.00,,,0.00,Wunderground v.1.15,2013-06-25 12:32:00,
2013-06-25 05:37:00,53.6,51.3,29.70,NE,51,2.0,3.0,92,0.00,,,0.00,Wunderground v.1.15,2013-06-25 12:37:00,
2013-06-25 05:42:00,53.6,51.3,29.70,NE,51,0.0,2.0,92,0.00,,,0.00,Wunderground v.1.15,2013-06-25 12:42:00,
2013-06-25 05:47:00,53.5,51.2,29.70,NE,51,0.0,2.0,92,0.00,,,0.00,Wunderground v.1.15,2013-06-25 12:47:00,
2013-06-25 05:52:00,53.4,51.1,29.70,NE,51,0.0,2.0,92,0.00,,,0.00,Wunderground v.1.15,2013-06-25 12:52:00,
2013-06-25 05:57:00,53.5,51.5,29.70,NE,51,3.0,4.0,93,0.00,,,0.00,Wunderground v.1.15,2013-06-25 12:57:00,
2013-06-25 06:02:00,53.7,51.7,29.70,NE,51,6.0,7.0,93,0.00,,,0.00,Wunderground v.1.15,2013-06-25 13:02:00,
2013-06-25 06:07:00,53.9,51.9,29.70,East,84,5.0,7.0,93,0.00,,,0.00,Wunderground v.1.15,2013-06-25 13:07:00,
2013-06-25 06:12:00,54.0,52.0,29.70,East,98,5.0,9.0,93,0.00,,,0.00,Wunderground v.1.15,2013-06-25 13:12:00,
2013-06-25 06:17:00,54.0,52.3,29.70,East,98,4.0,9.0,94,0.00,,,0.00,Wunderground v.1.15,2013-06-25 13:17:00,
2013-06-25 06:22:00,54.1,52.4,29.71,East,99,5.0,8.0,94,0.00,,,0.00,Wunderground v.1.15,2013-06-25 13:22:00,
2013-06-25 06:27:00,54.2,52.5,29.71,East,100,5.0,8.0,94,0.00,,,0.00,Wunderground v.1.15,2013-06-25 13:27:00,
2013-06-25 06:32:00,54.2,52.5,29.70,ESE,107,9.0,9.0,94,0.00,,,0.00,Wunderground v.1.15,2013-06-25 13:32:00,
2013-06-25 06:37:00,54.2,52.5,29.71,ESE,107,6.0,9.0,94,0.00,,,0.00,Wunderground v.1.15,2013-06-25 13:37:00,
2013-06-25 06:42:00,54.3,52.3,29.71,ESE,109,6.0,8.0,93,0.00,,,0.00,Wunderground v.1.15,2013-06-25 13:42:00,
2013-06-25 06:47:00,54.5,52.5,29.70,ESE,103,8.0,8.0,93,0.00,,,0.00,Wunderground v.1.15,2013-06-25 13:47:00,
2013-06-25 06:52:00,54.6,52.6,29.70,ESE,105,5.0,7.0,93,0.00,,,0.00,Wunderground v.1.15,2013-06-25 13:52:00,
2013-06-25 06:57:00,54.8,53.1,29.70,ESE,103,5.0,7.0,94,0.00,,,0.00,Wunderground v.1.15,2013-06-25 13:57:00,
2013-06-25 07:02:00,55.1,53.4,29.71,ESE,103,2.0,5.0,94,0.00,,,0.00,Wunderground v.1.15,2013-06-25 14:02:00,
2013-06-25 07:07:00,55.2,53.2,29.71,ESE,105,2.0,6.0,93,0.00,,,0.00,Wunderground v.1.15,2013-06-25 14:07:00,
2013-06-25 07:12:00,55.3,53.3,29.71,ESE,105,2.0,4.0,93,0.00,,,0.00,Wunderground v.1.15,2013-06-25 14:12:00,
2013-06-25 07:17:00,55.4,53.4,29.71,ESE,106,2.0,5.0,93,0.00,,,0.00,Wunderground v.1.15,2013-06-25 14:17:00,
2013-06-25 07:22:00,55.5,53.5,29.71,ESE,105,1.0,2.0,93,0.00,,,0.00,Wunderground v.1.15,2013-06-25 14:22:00,
2013-06-25 07:27:00,55.7,53.7,29.71,ESE,105,2.0,2.0,93,0.00,,,0.00,Wunderground v.1.15,2013-06-25 14:27:00,
2013-06-25 07:32:00,55.9,53.9,29.71,ESE,105,0.0,2.0,93,0.00,,,0.00,Wunderground v.1.15,2013-06-25 14:32:00,
2013-06-25 07:37:00,56.3,54.3,29.71,ESE,105,0.0,2.0,93,0.00,,,0.00,Wunderground v.1.15,2013-06-25 14:37:00,
2013-06-25 07:42:00,56.9,54.6,29.72,ESE,105,0.0,1.0,92,0.00,,,0.00,Wunderground v.1.15,2013-06-25 14:42:00,
2013-06-25 07:47:00,57.5,54.9,29.72,ESE,106,2.0,2.0,91,0.00,,,0.00,Wunderground v.1.15,2013-06-25 14:47:00,
2013-06-25 07:52:00,57.3,54.4,29.72,ESE,107,0.0,1.0,90,0.00,,,0.00,Wunderground v.1.15,2013-06-25 14:52:00,
2013-06-25 07:57:00,57.3,54.4,29.72,ESE,107,0.0,1.0,90,0.00,,,0.00,Wunderground v.1.15,2013-06-25 14:57:00,
2013-06-25 08:02:00,57.8,55.5,29.72,ESE,107,0.0,1.0,92,0.00,,,0.00,Wunderground v.1.15,2013-06-25 15:02:00,
2013-06-25 08:07:00,58.2,55.9,29.73,ESE,105,1.0,4.0,92,0.00,,,0.00,Wunderground v.1.15,2013-06-25 15:07:00,
2013-06-25 08:12:00,58.6,56.6,29.73,ESE,104,1.0,4.0,93,0.00,,,0.00,Wunderground v.1.15,2013-06-25 15:12:00,
2013-06-25 08:17:00,58.5,55.9,29.73,ESE,107,0.0,4.0,91,0.00,,,0.00,Wunderground v.1.15,2013-06-25 15:17:00,
2013-06-25 08:22:00,57.9,55.0,29.74,ESE,110,1.0,2.0,90,0.00,,,0.00,Wunderground v.1.15,2013-06-25 15:22:00,
2013-06-25 08:27:00,57.7,54.8,29.74,ESE,111,4.0,4.0,90,0.00,,,0.00,Wunderground v.1.15,2013-06-25 15:27:00,
2013-06-25 08:32:00,57.7,54.8,29.74,SE,127,6.0,7.0,90,0.00,,,0.00,Wunderground v.1.15,2013-06-25 15:32:00,
2013-06-25 08:37:00,57.5,54.0,29.74,SE,134,6.0,7.0,88,0.00,,,0.00,Wunderground v.1.15,2013-06-25 15:37:00,
2013-06-25 08:42:00,57.5,54.0,29.75,SE,135,4.0,6.0,88,0.00,,,0.00,Wunderground v.1.15,2013-06-25 15:42:00,
2013-06-25 08:47:00,57.5,54.0,29.75,SE,142,5.0,7.0,88,0.00,,,0.00,Wunderground v.1.15,2013-06-25 15:47:00,
2013-06-25 08:52:00,57.4,54.2,29.75,SSE,153,5.0,7.0,89,0.00,,,0.01,Wunderground v.1.15,2013-06-25 15:52:00,
2013-06-25 08:57:00,57.3,54.1,29.76,SSE,154,4.0,7.0,89,0.00,,,0.01,Wunderground v.1.15,2013-06-25 15:57:00,
2013-06-25 09:02:00,57.3,54.1,29.76,SSE,159,4.0,6.0,89,0.00,,,0.01,Wunderground v.1.15,2013-06-25 16:02:00,
2013-06-25 09:07:00,57.3,54.4,29.76,SSE,161,6.0,6.0,90,0.00,,,0.01,Wunderground v.1.15,2013-06-25 16:07:00,
2013-06-25 09:12:00,57.1,54.2,29.76,SSW,194,7.0,9.0,90,0.00,,,0.01,Wunderground v.1.15,2013-06-25 16:12:00,
2013-06-25 09:17:00,56.8,53.9,29.76,South,191,5.0,9.0,90,0.00,,,0.01,Wunderground v.1.15,2013-06-25 16:17:00,
2013-06-25 09:22:00,56.6,53.7,29.77,South,186,4.0,8.0,90,0.00,,,0.02,Wunderground v.1.15,2013-06-25 16:22:00,
2013-06-25 09:27:00,56.5,53.9,29.76,South,186,3.0,8.0,91,0.09,,,0.03,Wunderground v.1.15,2013-06-25 16:27:00,
2013-06-25 09:32:00,56.4,53.8,29.76,South,186,3.0,4.0,91,0.08,,,0.03,Wunderground v.1.15,2013-06-25 16:32:00,
2013-06-25 09:37:00,56.3,53.7,29.76,South,186,0.0,4.0,91,0.05,,,0.04,Wunderground v.1.15,2013-06-25 16:37:00,
2013-06-25 09:42:00,56.3,54.0,29.75,South,186,2.0,2.0,92,0.05,,,0.04,Wunderground v.1.15,2013-06-25 16:42:00,
2013-06-25 09:47:00,56.3,54.0,29.75,South,186,1.0,4.0,92,0.06,,,0.05,Wunderground v.1.15,2013-06-25 16:47:00,
2013-06-25 09:52:00,56.2,53.9,29.75,South,186,1.0,2.0,92,0.06,,,0.05,Wunderground v.1.15,2013-06-25 16:52:00,
2013-06-25 09:57:00,56.2,53.9,29.75,South,186,0.0,2.0,92,0.05,,,0.05,Wunderground v.1.15,2013-06-25 16:57:00,
2013-06-25 10:02:00,56.2,53.9,29.75,South,186,0.0,2.0,92,0.04,,,0.05,Wunderground v.1.15,2013-06-25 17:02:00,
2013-06-25 10:07:00,56.4,54.1,29.75,South,186,1.0,3.0,92,0.00,,,0.05,Wunderground v.1.15,2013-06-25 17:07:00,
2013-06-25 10:12:00,56.2,53.9,29.75,South,186,1.0,3.0,92,0.00,,,0.05,Wunderground v.1.15,2013-06-25 17:12:00,
2013-06-25 10:17:00,56.2,53.9,29.75,South,186,1.0,3.0,92,0.00,,,0.05,Wunderground v.1.15,2013-06-25 17:17:00,
2013-06-25 10:22:00,56.3,54.0,29.75,South,180,3.0,3.0,92,0.00,,,0.05,Wunderground v.1.15,2013-06-25 17:22:00,
2013-06-25 10:27:00,56.4,53.8,29.75,South,171,6.0,6.0,91,0.00,,,0.06,Wunderground v.1.15,2013-06-25 17:27:00,
2013-06-25 10:32:00,56.4,53.8,29.74,SE,138,5.0,7.0,91,0.00,,,0.06,Wunderground v.1.15,2013-06-25 17:32:00,
2013-06-25 10:37:00,56.5,53.9,29.74,SE,138,5.0,7.0,91,0.00,,,0.06,Wunderground v.1.15,2013-06-25 17:37:00,
2013-06-25 10:42:00,56.7,53.8,29.75,SE,138,4.0,7.0,90,0.00,,,0.06,Wunderground v.1.15,2013-06-25 17:42:00,
2013-06-25 10:47:00,57.0,54.1,29.75,SE,138,5.0,7.0,90,0.00,,,0.06,Wunderground v.1.15,2013-06-25 17:47:00,
2013-06-25 10:52:00,56.9,54.0,29.74,SE,138,5.0,7.0,90,0.00,,,0.06,Wunderground v.1.15,2013-06-25 17:52:00,
2013-06-25 10:57:00,57.2,54.3,29.74,East,101,7.0,9.0,90,0.00,,,0.06,Wunderground v.1.15,2013-06-25 17:57:00,
2013-06-25 11:02:00,57.2,53.7,29.74,East,90,8.0,9.0,88,0.00,,,0.06,Wunderground v.1.15,2013-06-25 18:02:00,
2013-06-25 11:07:00,57.6,54.4,29.74,East,87,6.0,9.0,89,0.00,,,0.06,Wunderground v.1.15,2013-06-25 18:07:00,
2013-06-25 11:12:00,57.7,54.2,29.74,East,86,3.0,7.0,88,0.00,,,0.06,Wunderground v.1.15,2013-06-25 18:12:00,
2013-06-25 11:17:00,57.8,54.3,29.74,East,87,6.0,7.0,88,0.00,,,0.06,Wunderground v.1.15,2013-06-25 18:17:00,
2013-06-25 11:22:00,58.0,54.5,29.75,East,87,6.0,6.0,88,0.00,,,0.06,Wunderground v.1.15,2013-06-25 18:22:00,
2013-06-25 11:27:00,58.1,54.6,29.75,ESE,111,7.0,11.0,88,0.00,,,0.06,Wunderground v.1.15,2013-06-25 18:27:00,
2013-06-25 11:32:00,58.3,55.1,29.75,ESE,113,9.0,9.0,89,0.00,,,0.06,Wunderground v.1.15,2013-06-25 18:32:00,
2013-06-25 11:37:00,58.2,54.7,29.75,ESE,123,7.0,11.0,88,0.00,,,0.06,Wunderground v.1.15,2013-06-25 18:37:00,
2013-06-25 11:42:00,58.3,54.4,29.75,SE,140,10.0,11.0,87,0.00,,,0.06,Wunderground v.1.15,2013-06-25 18:42:00,
2013-06-25 11:47:00,58.3,54.4,29.75,SE,142,7.0,11.0,87,0.00,,,0.06,Wunderground v.1.15,2013-06-25 18:47:00,
2013-06-25 11:52:00,58.4,54.2,29.74,SE,129,8.0,9.0,86,0.00,,,0.06,Wunderground v.1.15,2013-06-25 18:52:00,
2013-06-25 11:57:00,58.7,54.5,29.74,SE,128,6.0,9.0,86,0.00,,,0.06,Wunderground v.1.15,2013-06-25 18:57:00,
2013-06-25 12:02:00,58.8,54.3,29.75,SE,126,5.0,6.0,85,0.00,,,0.06,Wunderground v.1.15,2013-06-25 19:02:00,
2013-06-25 12:07:00,59.2,55.0,29.75,SE,130,1.0,8.0,86,0.00,,,0.06,Wunderground v.1.15,2013-06-25 19:07:00,
2013-06-25 12:12:00,59.6,55.1,29.75,SE,133,4.0,6.0,85,0.00,,,0.06,Wunderground v.1.15,2013-06-25 19:12:00,
2013-06-25 12:17:00,59.9,55.4,29.75,SE,146,4.0,7.0,85,0.00,,,0.06,Wunderground v.1.15,2013-06-25 19:17:00,
2013-06-25 12:22:00,60.4,55.2,29.75,SSE,150,4.0,6.0,83,0.00,,,0.06,Wunderground v.1.15,2013-06-25 19:22:00,
2013-06-25 12:27:00,61.0,55.5,29.76,SSE,150,4.0,6.0,82,0.00,,,0.06,Wunderground v.1.15,2013-06-25 19:27:00,
2013-06-25 12:32:00,61.1,54.9,29.76,SSE,150,2.0,3.0,80,0.00,,,0.06,Wunderground v.1.15,2013-06-25 19:32:00,
2013-06-25 12:37:00,61.7,55.8,29.76,SSE,151,5.0,5.0,81,0.00,,,0.06,Wunderground v.1.15,2013-06-25 19:37:00,
2013-06-25 12:42:00,62.3,54.3,29.76,SSE,153,0.0,4.0,75,0.00,,,0.06,Wunderground v.1.15,2013-06-25 19:42:00,
2013-06-25 12:47:00,63.1,55.4,29.76,SSE,154,1.0,6.0,76,0.00,,,0.06,Wunderground v.1.15,2013-06-25 19:47:00,
2013-06-25 12:52:00,63.9,55.4,29.76,SSE,156,4.0,6.0,74,0.00,,,0.06,Wunderground v.1.15,2013-06-25 19:52:00,
2013-06-25 12:57:00,63.5,55.4,29.76,SSE,157,2.0,6.0,75,0.00,,,0.06,Wunderground v.1.15,2013-06-25 19:57:00,
2013-06-25 13:02:00,63.5,55.8,29.76,South,175,6.0,8.0,76,0.00,,,0.06,Wunderground v.1.15,2013-06-25 20:02:00,
2013-06-25 13:07:00,63.3,56.0,29.76,South,184,3.0,8.0,77,0.00,,,0.06,Wunderground v.1.15,2013-06-25 20:07:00,
2013-06-25 13:12:00,63.4,55.7,29.76,South,186,2.0,5.0,76,0.00,,,0.06,Wunderground v.1.15,2013-06-25 20:12:00,
2013-06-25 13:17:00,63.6,55.5,29.76,South,186,1.0,5.0,75,0.00,,,0.06,Wunderground v.1.15,2013-06-25 20:17:00,
2013-06-25 13:22:00,64.1,54.9,29.76,South,177,4.0,10.0,72,0.00,,,0.06,Wunderground v.1.15,2013-06-25 20:22:00,
2013-06-25 13:27:00,64.5,53.3,29.76,South,190,7.0,12.0,67,0.00,,,0.06,Wunderground v.1.15,2013-06-25 20:27:00,
2013-06-25 13:32:00,64.8,54.0,29.76,SSW,195,8.0,10.0,68,0.00,,,0.06,Wunderground v.1.15,2013-06-25 20:32:00,
2013-06-25 13:37:00,64.9,54.1,29.76,South,191,6.0,10.0,68,0.00,,,0.06,Wunderground v.1.15,2013-06-25 20:37:00,
2013-06-25 13:42:00,64.7,54.3,29.76,SSW,192,6.0,10.0,69,0.00,,,0.06,Wunderground v.1.15,2013-06-25 20:42:00,
2013-06-25 13:47:00,65.1,54.7,29.76,South,173,11.0,12.0,69,0.00,,,0.06,Wunderground v.1.15,2013-06-25 20:47:00,
2013-06-25 13:52:00,65.2,55.2,29.76,SSW,200,10.0,12.0,70,0.00,,,0.06,Wunderground v.1.15,2013-06-25 20:52:00,
2013-06-25 13:57:00,65.4,54.2,29.75,South,190,9.0,15.0,67,0.00,,,0.06,Wunderground v.1.15,2013-06-25 20:57:00,
2013-06-25 14:02:00,65.9,53.8,29.75,South,172,8.0,11.0,65,0.00,,,0.06,Wunderground v.1.15,2013-06-25 21:02:00,
2013-06-25 14:07:00,66.5,55.2,29.75,South,169,4.0,14.0,67,0.00,,,0.06,Wunderground v.1.15,2013-06-25 21:07:00,
2013-06-25 14:12:00,66.3,55.0,29.75,South,185,4.0,11.0,67,0.00,,,0.06,Wunderground v.1.15,2013-06-25 21:12:00,
2013-06-25 14:17:00,66.0,53.9,29.75,SE,145,9.0,13.0,65,0.00,,,0.06,Wunderground v.1.15,2013-06-25 21:17:00,
2013-06-25 14:22:00,65.2,54.8,29.76,SSE,152,10.0,17.0,69,0.00,,,0.06,Wunderground v.1.15,2013-06-25 21:22:00,
2013-06-25 14:27:00,64.4,55.2,29.76,SSE,165,16.0,20.0,72,0.00,,,0.06,Wunderground v.1.15,2013-06-25 21:27:00,
2013-06-25 14:31:00,63.9,54.3,29.76,South,170,17.0,17.0,71,0.00,,,0.06,Wunderground v.1.15,2013-06-25 21:31:00,
2013-06-25 14:36:00,64.1,55.3,29.76,South,177,7.0,17.0,73,0.00,,,0.06,Wunderground v.1.15,2013-06-25 21:36:00,
2013-06-25 14:41:00,64.9,54.9,29.75,SSE,155,10.0,10.0,70,0.00,,,0.06,Wunderground v.1.15,2013-06-25 21:41:00,
2013-06-25 14:46:00,64.7,53.9,29.75,South,172,8.0,16.0,68,0.00,,,0.06,Wunderground v.1.15,2013-06-25 21:46:00,
2013-06-25 14:51:00,65.0,54.2,29.75,South,169,9.0,10.0,68,0.00,,,0.06,Wunderground v.1.15,2013-06-25 21:51:00,
2013-06-25 14:56:00,65.4,54.6,29.76,South,191,9.0,17.0,68,0.00,,,0.06,Wunderground v.1.15,2013-06-25 21:56:00,
2013-06-25 15:01:00,66.5,55.6,29.75,South,184,6.0,11.0,68,0.00,,,0.06,Wunderground v.1.15,2013-06-25 22:01:00,
2013-06-25 15:06:00,67.4,56.1,29.75,South,172,17.0,19.0,67,0.00,,,0.06,Wunderground v.1.15,2013-06-25 22:06:00,
2013-06-25 15:11:00,66.6,54.0,29.75,South,173,9.0,11.0,64,0.00,,,0.06,Wunderground v.1.15,2013-06-25 22:11:00,
2013-06-25 15:16:00,66.2,54.1,29.75,SSE,158,7.0,16.0,65,0.00,,,0.06,Wunderground v.1.15,2013-06-25 22:16:00,
2013-06-25 15:21:00,66.8,53.4,29.76,SSW,200,13.0,13.0,62,0.00,,,0.06,Wunderground v.1.15,2013-06-25 22:21:00,
2013-06-25 15:26:00,66.3,53.8,29.75,SSW,209,12.0,18.0,64,0.00,,,0.06,Wunderground v.1.15,2013-06-25 22:26:00,
2013-06-25 15:31:00,66.3,54.2,29.75,SW,234,11.0,14.0,65,0.00,,,0.06,Wunderground v.1.15,2013-06-25 22:31:00,
2013-06-25 15:36:00,66.9,53.0,29.75,SW,223,12.0,18.0,61,0.00,,,0.06,Wunderground v.1.15,2013-06-25 22:36:00,
2013-06-25 15:41:00,67.5,53.1,29.75,SSW,211,14.0,14.0,60,0.00,,,0.06,Wunderground v.1.15,2013-06-25 22:41:00,
2013-06-25 15:46:00,67.6,54.1,29.74,SSW,196,8.0,14.0,62,0.00,,,0.06,Wunderground v.1.15,2013-06-25 22:46:00,
2013-06-25 15:51:00,68.1,54.6,29.74,SSW,208,19.0,19.0,62,0.00,,,0.06,Wunderground v.1.15,2013-06-25 22:51:00,
2013-06-25 15:56:00,68.1,53.7,29.74,SSW,197,19.0,19.0,60,0.00,,,0.06,Wunderground v.1.15,2013-06-25 22:56:00,
2013-06-25 16:01:00,68.3,54.3,29.74,SSW,198,12.0,12.0,61,0.00,,,0.06,Wunderground v.1.15,2013-06-25 23:01:00,
2013-06-25 16:06:00,68.5,53.6,29.74,SSW,206,12.0,18.0,59,0.00,,,0.06,Wunderground v.1.15,2013-06-25 23:06:00,
2013-06-25 16:11:00,68.5,53.6,29.73,SSW,192,16.0,16.0,59,0.00,,,0.06,Wunderground v.1.15,2013-06-25 23:11:00,
2013-06-25 16:16:00,68.5,52.2,29.73,SSW,204,14.0,21.0,56,0.00,,,0.06,Wunderground v.1.15,2013-06-25 23:16:00,
2013-06-25 16:20:00,68.6,52.3,29.73,SSW,198,9.0,21.0,56,0.00,,,0.06,Wunderground v.1.15,2013-06-25 23:20:00,
2013-06-25 16:25:00,69.1,52.7,29.73,SW,215,6.0,17.0,56,0.00,,,0.06,Wunderground v.1.15,2013-06-25 23:25:00,
2013-06-25 16:30:00,69.1,51.8,29.73,SSW,192,13.0,23.0,54,0.00,,,0.06,Wunderground v.1.15,2013-06-25 23:30:00,
2013-06-25 16:35:00,69.1,52.7,29.73,South,184,15.0,24.0,56,0.00,,,0.06,Wunderground v.1.15,2013-06-25 23:35:00,
2013-06-25 16:40:00,69.5,52.6,29.73,SW,228,8.0,24.0,55,0.00,,,0.06,Wunderground v.1.15,2013-06-25 23:40:00,
2013-06-25 16:45:00,69.6,51.7,29.73,SW,224,12.0,21.0,53,0.00,,,0.06,Wunderground v.1.15,2013-06-25 23:45:00,
2013-06-25 16:50:00,69.5,52.6,29.73,SW,221,15.0,21.0,55,0.00,,,0.06,Wunderground v.1.15,2013-06-25 23:50:00,
2013-06-25 16:55:00,69.7,51.3,29.73,SSW,192,14.0,19.0,52,0.00,,,0.06,Wunderground v.1.15,2013-06-25 23:55:00,
2013-06-25 17:00:00,69.6,52.2,29.73,SSW,210,16.0,20.0,54,0.00,,,0.06,Wunderground v.1.15,2013-06-26 00:00:00,
2013-06-25 17:05:00,69.5,52.6,29.73,SSW,209,5.0,17.0,55,0.00,,,0.06,Wunderground v.1.15,2013-06-26 00:05:00,
2013-06-25 17:10:00,69.2,51.8,29.72,SSW,198,18.0,22.0,54,0.00,,,0.06,Wunderground v.1.15,2013-06-26 00:10:00,
2013-06-25 17:15:00,68.3,51.0,29.73,SSW,207,5.0,19.0,54,0.00,,,0.06,Wunderground v.1.15,2013-06-26 00:15:00,
2013-06-25 17:20:00,67.9,51.1,29.73,South,185,9.0,19.0,55,0.00,,,0.06,Wunderground v.1.15,2013-06-26 00:20:00,
2013-06-25 17:25:00,68.0,50.7,29.73,South,188,15.0,18.0,54,0.00,,,0.06,Wunderground v.1.15,2013-06-26 00:25:00,
2013-06-25 17:30:00,68.1,51.3,29.73,SSW,212,10.0,18.0,55,0.00,,,0.06,Wunderground v.1.15,2013-06-26 00:30:00,
2013-06-25 17:35:00,67.8,51.5,29.73,SSW,198,8.0,16.0,56,0.00,,,0.06,Wunderground v.1.15,2013-06-26 00:35:00,
2013-06-25 17:40:00,68.3,51.5,29.72,South,181,12.0,16.0,55,0.00,,,0.06,Wunderground v.1.15,2013-06-26 00:40:00,
2013-06-25 17:45:00,69.3,51.9,29.72,SSE,164,14.0,19.0,54,0.00,,,0.06,Wunderground v.1.15,2013-06-26 00:45:00,
2013-06-25 17:50:00,68.7,51.4,29.73,SSW,207,6.0,20.0,54,0.00,,,0.06,Wunderground v.1.15,2013-06-26 00:50:00,
2013-06-25 17:55:00,68.4,51.1,29.73,South,187,8.0,14.0,54,0.00,,,0.06,Wunderground v.1.15,2013-06-26 00:55:00,
2013-06-25 18:00:00,68.0,51.7,29.73,SSW,192,9.0,16.0,56,0.00,,,0.06,Wunderground v.1.15,2013-06-26 01:00:00,
2013-06-25 18:01:00,68.0,51.7,29.73,South,184,10.0,16.0,56,0.00,,,0.06,Wunderground v.1.15,2013-06-26 01:01:00,
2013-06-25 18:05:00,67.8,52.5,29.73,South,182,5.0,11.0,58,0.00,,,0.06,Wunderground v.1.15,2013-06-26 01:05:00,
2013-06-25 18:10:00,67.5,52.2,29.73,South,183,7.0,14.0,58,0.00,,,0.06,Wunderground v.1.15,2013-06-26 01:10:00,
2013-06-25 18:15:00,67.7,51.9,29.73,South,190,8.0,14.0,57,0.00,,,0.06,Wunderground v.1.15,2013-06-26 01:15:00,
2013-06-25 18:20:00,68.0,52.7,29.73,South,184,6.0,14.0,58,0.00,,,0.06,Wunderground v.1.15,2013-06-26 01:20:00,
2013-06-25 18:25:00,68.5,51.7,29.73,SW,232,3.0,17.0,55,0.00,,,0.06,Wunderground v.1.15,2013-06-26 01:25:00,
2013-06-25 18:30:00,69.0,50.6,29.73,SSW,192,17.0,17.0,52,0.00,,,0.06,Wunderground v.1.15,2013-06-26 01:30:00,
2013-06-25 18:36:00,69.0,51.2,29.73,South,178,15.0,18.0,53,0.00,,,0.06,Wunderground v.1.15,2013-06-26 01:36:00,
2013-06-25 18:41:00,69.1,52.2,29.73,SSE,166,12.0,20.0,55,0.00,,,0.06,Wunderground v.1.15,2013-06-26 01:41:00,
2013-06-25 18:46:00,68.7,51.4,29.73,SSW,206,14.0,20.0,54,0.00,,,0.06,Wunderground v.1.15,2013-06-26 01:46:00,
2013-06-25 18:51:00,68.4,52.1,29.73,South,184,12.0,20.0,56,0.00,,,0.06,Wunderground v.1.15,2013-06-26 01:51:00,
2013-06-25 18:56:00,68.3,52.0,29.73,SW,217,10.0,13.0,56,0.00,,,0.06,Wunderground v.1.15,2013-06-26 01:56:00,
2013-06-25 19:00:00,68.0,51.2,29.73,SSW,211,6.0,14.0,55,0.00,,,0.06,Wunderground v.1.15,2013-06-26 02:00:00,
2013-06-25 19:05:00,67.7,51.9,29.73,SSW,204,9.0,14.0,57,0.00,,,0.06,Wunderground v.1.15,2013-06-26 02:05:00,
2013-06-25 19:10:00,67.5,52.2,29.73,South,184,6.0,14.0,58,0.00,,,0.06,Wunderground v.1.15,2013-06-26 02:10:00,
2013-06-25 19:15:00,67.3,52.5,29.73,SSW,196,4.0,9.0,59,0.00,,,0.06,Wunderground v.1.15,2013-06-26 02:15:00,
2013-06-25 19:20:00,67.1,52.3,29.73,South,186,6.0,9.0,59,0.00,,,0.06,Wunderground v.1.15,2013-06-26 02:20:00,
2013-06-25 19:25:00,67.0,52.7,29.73,South,187,8.0,10.0,60,0.00,,,0.06,Wunderground v.1.15,2013-06-26 02:25:00,
2013-06-25 19:30:00,66.7,53.7,29.74,South,169,4.0,11.0,63,0.00,,,0.06,Wunderground v.1.15,2013-06-26 02:30:00,
2013-06-25 19:35:00,66.3,54.2,29.74,South,177,5.0,9.0,65,0.00,,,0.06,Wunderground v.1.15,2013-06-26 02:35:00,
2013-06-25 19:40:00,65.9,55.0,29.74,South,170,6.0,9.0,68,0.00,,,0.06,Wunderground v.1.15,2013-06-26 02:40:00,
2013-06-25 19:45:00,65.7,55.2,29.74,SSE,167,4.0,6.0,69,0.00,,,0.06,Wunderground v.1.15,2013-06-26 02:45:00,
2013-06-25 19:50:00,65.6,55.9,29.74,SSE,164,7.0,8.0,71,0.00,,,0.06,Wunderground v.1.15,2013-06-26 02:50:00,
2013-06-25 19:55:00,65.6,56.3,29.74,SSE,162,6.0,7.0,72,0.00,,,0.06,Wunderground v.1.15,2013-06-26 02:55:00,
2013-06-25 20:00:00,65.6,56.3,29.74,South,175,6.0,8.0,72,0.00,,,0.06,Wunderground v.1.15,2013-06-26 03:00:00,
2013-06-25 20:05:00,65.5,56.2,29.74,South,180,5.0,9.0,72,0.00,,,0.06,Wunderground v.1.15,2013-06-26 03:05:00,
2013-06-25 20:10:00,65.4,56.1,29.74,South,190,6.0,9.0,72,0.00,,,0.06,Wunderground v.1.15,2013-06-26 03:10:00,
2013-06-25 20:15:00,65.3,55.3,29.75,SW,217,18.0,18.0,70,0.00,,,0.06,Wunderground v.1.15,2013-06-26 03:15:00,
2013-06-25 20:20:00,65.9,52.9,29.75,SW,219,8.0,18.0,63,0.00,,,0.06,Wunderground v.1.15,2013-06-26 03:20:00,
2013-06-25 20:25:00,65.7,52.8,29.75,SW,232,10.0,16.0,63,0.00,,,0.06,Wunderground v.1.15,2013-06-26 03:25:00,
2013-06-25 20:30:00,65.1,53.0,29.75,SW,233,10.0,16.0,65,0.00,,,0.06,Wunderground v.1.15,2013-06-26 03:30:00,
2013-06-25 20:35:00,64.7,53.5,29.75,WSW,238,6.0,12.0,67,0.00,,,0.06,Wunderground v.1.15,2013-06-26 03:35:00,
2013-06-25 20:40:00,64.5,53.7,29.75,West,260,9.0,13.0,68,0.00,,,0.06,Wunderground v.1.15,2013-06-26 03:40:00,
2013-06-25 20:45:00,64.4,53.6,29.76,SW,229,6.0,12.0,68,0.00,,,0.06,Wunderground v.1.15,2013-06-26 03:45:00,
2013-06-25 20:50:00,63.9,53.1,29.76,SW,232,3.0,12.0,68,0.00,,,0.06,Wunderground v.1.15,2013-06-26 03:50:00,
2013-06-25 20:55:00,63.5,53.1,29.76,SW,219,4.0,8.0,69,0.00,,,0.06,Wunderground v.1.15,2013-06-26 03:55:00,
2013-06-25 21:00:00,63.2,52.9,29.76,SW,219,5.0,11.0,69,0.00,,,0.06,Wunderground v.1.15,2013-06-26 04:00:00,
2013-06-25 21:01:00,63.2,52.9,29.76,SSW,207,6.0,11.0,69,0.00,,,0.06,Wunderground v.1.15,2013-06-26 04:01:00,
2013-06-25 21:06:00,63.2,52.9,29.76,SW,223,4.0,14.0,69,0.00,,,0.06,Wunderground v.1.15,2013-06-26 04:06:00,
2013-06-25 21:11:00,63.0,53.4,29.76,SSW,213,3.0,14.0,71,0.00,,,0.06,Wunderground v.1.15,2013-06-26 04:11:00,
2013-06-25 21:16:00,62.6,53.4,29.76,SSW,206,1.0,6.0,72,0.00,,,0.06,Wunderground v.1.15,2013-06-26 04:16:00,
2013-06-25 21:21:00,62.2,53.8,29.77,SSW,198,2.0,6.0,74,0.00,,,0.06,Wunderground v.1.15,2013-06-26 04:21:00,
2013-06-25 21:26:00,61.7,54.4,29.77,SSW,213,3.0,6.0,77,0.00,,,0.06,Wunderground v.1.15,2013-06-26 04:26:00,
2013-06-25 21:31:00,61.3,54.4,29.77,SW,215,4.0,6.0,78,0.00,,,0.06,Wunderground v.1.15,2013-06-26 04:31:00,
2013-06-25 21:36:00,60.9,54.3,29.78,SSW,213,1.0,4.0,79,0.00,,,0.06,Wunderground v.1.15,2013-06-26 04:36:00,
2013-06-25 21:41:00,60.7,54.5,29.78,SW,214,2.0,4.0,80,0.00,,,0.06,Wunderground v.1.15,2013-06-26 04:41:00,
2013-06-25 21:46:00,60.7,55.5,29.78,SW,215,0.0,2.0,83,0.00,,,0.06,Wunderground v.1.15,2013-06-26 04:46:00,
2013-06-25 21:51:00,60.7,55.5,29.78,SW,218,1.0,3.0,83,0.00,,,0.06,Wunderground v.1.15,2013-06-26 04:51:00,
2013-06-25 21:56:00,60.1,54.2,29.78,SW,219,0.0,1.0,81,0.00,,,0.06,Wunderground v.1.15,2013-06-26 04:56:00,
2013-06-25 22:01:00,59.8,54.3,29.78,SW,219,0.0,1.0,82,0.00,,,0.06,Wunderground v.1.15,2013-06-26 05:01:00,
2013-06-25 22:06:00,59.7,54.2,29.78,SW,219,0.0,0.0,82,0.00,,,0.06,Wunderground v.1.15,2013-06-26 05:06:00,
2013-06-25 22:11:00,59.8,55.0,29.78,SW,219,1.0,2.0,84,0.00,,,0.06,Wunderground v.1.15,2013-06-26 05:11:00,
2013-06-25 22:16:00,60.0,54.5,29.78,SW,220,0.0,3.0,82,0.00,,,0.06,Wunderground v.1.15,2013-06-26 05:16:00,
2013-06-25 22:21:00,60.2,54.0,29.78,SW,223,0.0,4.0,80,0.00,,,0.06,Wunderground v.1.15,2013-06-26 05:21:00,
2013-06-25 22:26:00,60.6,55.1,29.78,SW,227,1.0,3.0,82,0.00,,,0.06,Wunderground v.1.15,2013-06-26 05:26:00,
2013-06-25 22:31:00,60.1,54.9,29.78,West,271,2.0,3.0,83,0.00,,,0.06,Wunderground v.1.15,2013-06-26 05:31:00,
2013-06-25 22:36:00,59.3,53.1,29.78,WNW,287,3.0,4.0,80,0.00,,,0.06,Wunderground v.1.15,2013-06-26 05:36:00,
2013-06-25 22:41:00,58.9,53.1,29.78,WNW,300,1.0,4.0,81,0.00,,,0.06,Wunderground v.1.15,2013-06-26 05:41:00,
2013-06-25 22:46:00,58.6,53.1,29.78,NW,315,3.0,4.0,82,0.00,,,0.06,Wunderground v.1.15,2013-06-26 05:46:00,
2013-06-25 22:51:00,58.3,52.8,29.78,NW,315,2.0,4.0,82,0.00,,,0.06,Wunderground v.1.15,2013-06-26 05:51:00,
2013-06-25 22:56:00,58.6,53.5,29.78,NW,315,1.0,3.0,83,0.00,,,0.06,Wunderground v.1.15,2013-06-26 05:56:00,
2013-06-25 23:01:00,59.1,54.3,29.79,NW,315,1.0,3.0,84,0.00,,,0.06,Wunderground v.1.15,2013-06-26 06:01:00,
2013-06-25 23:06:00,59.6,56.0,29.79,NW,315,1.0,3.0,88,0.00,,,0.06,Wunderground v.1.15,2013-06-26 06:06:00,
2013-06-25 23:11:00,59.5,54.7,29.78,NW,315,1.0,3.0,84,0.00,,,0.06,Wunderground v.1.15,2013-06-26 06:11:00,
2013-06-25 23:15:00,58.9,53.4,29.78,NW,315,1.0,1.0,82,0.00,,,0.06,Wunderground v.1.15,2013-06-26 06:15:00,
2013-06-25 23:20:00,58.4,52.6,29.79,NW,315,0.0,1.0,81,0.00,,,0.06,Wunderground v.1.15,2013-06-26 06:20:00,
2013-06-25 23:26:00,58.0,52.5,29.79,NW,315,0.0,1.0,82,0.00,,,0.06,Wunderground v.1.15,2013-06-26 06:26:00,
2013-06-25 23:30:00,57.4,51.9,29.79,NW,315,0.0,1.0,82,0.00,,,0.06,Wunderground v.1.15,2013-06-26 06:30:00,
2013-06-25 23:35:00,57.3,51.9,29.80,NW,315,0.0,1.0,82,0.00,,,0.06,Wunderground v.1.15,2013-06-26 06:35:00,
2013-06-25 23:40:00,57.3,51.9,29.80,NW,315,0.0,1.0,82,0.00,,,0.06,Wunderground v.1.15,2013-06-26 06:40:00,
2013-06-25 23:45:00,57.3,51.9,29.80,NW,315,1.0,2.0,82,0.00,,,0.06,Wunderground v.1.15,2013-06-26 06:45:00,
2013-06-25 23:50:00,57.5,52.0,29.80,NW,315,1.0,2.0,82,0.00,,,0.06,Wunderground v.1.15,2013-06-26 06:50:00,
2013-06-25 23:53:00,57.7,52.2,29.80,NW,315,0.0,1.0,82,0.00,,,0.06,Wunderground v.1.15,2013-06-26 06:53:00,
2013-06-25 23:56:00,57.8,52.0,29.80,NW,315,1.0,1.0,81,0.00,,,0.06,Wunderground v.1.15,2013-06-26 06:56:00,
2013-06-25 23:59:00,57.7,51.9,29.80,NW,315,2.0,2.0,81,0.00,,,0.00,Wunderground v.1.15,2013-06-26 06:59:00,